Terminal Aerodrome Forecast
Issued by NWS Newport/Morehead City, NC

Home | Current Version | Previous Version | Graphics & Text | Print | Product List | Glossary On
Versions: 1 2 3 4 5 6 7 8 9 10 11 12 13 14 15 16 17 18 19 20 21 22 23
525
FTUS42 KMHX 300546
TAFEWN
TAF
KEWN 300546Z 3006/3106 VRB04KT P6SM VCSH SCT015 OVC045
     FM300900 VRB03KT 3SM SHRA SCT008 OVC025
      TEMPO 3009/3012 2SM +SHRA BKN008 OVC015
     FM301200 VRB03KT 3SM SHRA OVC008
     FM301600 16005KT P6SM VCSH OVC025
     FM302000 16008KT P6SM VCSH OVC040=

USA.gov is the U.S. government's official web portal to all federal, state and local government web resources and services.